Latest Weather Observations for Mount Boyce

IDN60801

Issued at 3:02 pm EST Thursday 27 April 2017 (issued every 30 minutes, with the page automatically refreshed every 10 minutes)

About weather observations | Map of weather stations | Latest weather observations for NSW | Other Formats
Station Details ID: 063292 Name: MOUNT BOYCE AWS Lat: -33.62 Lon: 150.27 Height: 1080.0 m
Data from the previous 72 hours. | See also: Recent months at Mount Boyce
Date/Time
EST
Temp
°C
App
Temp
°C
Dew
Point
°C
Rel
Hum
%
Delta-T
°C
Wind Press
QNH
hPa
Press
MSL
hPa
Rain since
9am
mm
Dir  Spd
km/h
Gust
km/h
Spd
kts
Gust
kts
27/03:00pm 11.7 8.5 3.2 56 4.0 WSW 9 19 5 10 - - 0.0
27/02:30pm 11.6 7.7 3.6 58 3.8 SSW 13 20 7 11 - - 0.0
27/02:00pm 9.6 5.6 0.8 54 3.8 SSW 11 17 6 9 - - 0.0
27/01:30pm 12.0 8.4 2.7 53 4.3 W 11 17 6 9 - - 0.0
27/01:00pm 10.6 7.6 1.9 55 3.9 SSW 7 13 4 7 - - 0.0
27/12:30pm 10.4 7.0 2.0 56 3.8 SW 9 19 5 10 - - 0.0
27/12:00pm 9.8 6.5 2.2 59 3.4 SSW 9 13 5 7 - - 0.0
27/11:30am 8.9 4.8 2.5 64 2.9 W 13 19 7 10 - - 0.0
27/11:00am 8.0 3.9 2.3 67 2.5 W 13 20 7 11 - - 0.0
27/10:30am 7.0 3.0 2.7 74 1.9 W 13 17 7 9 - - 0.0
27/10:00am 6.2 1.8 2.8 79 1.5 W 15 19 8 10 - - 0.0
27/09:30am 5.5 1.5 2.7 82 1.2 W 13 19 7 10 - - 0.0
27/09:00am 4.8 -0.3 3.0 88 0.8 WSW 19 26 10 14 - - 2.8
27/08:30am 4.2 -1.0 2.7 90 0.7 W 19 26 10 14 - - 2.8
27/08:12am 3.9 -1.2 2.9 93 0.4 W 19 24 10 13 - - 2.8
27/08:00am 3.7 -1.0 3.0 95 0.3 W 17 22 9 12 - - 2.8
27/07:30am 3.5 -1.2 3.2 98 0.1 W 17 20 9 11 - - 2.8
27/07:15am 3.4 -1.3 3.1 98 0.1 W 17 22 9 12 - - 2.8
27/07:00am 3.3 -1.0 3.0 98 0.1 W 15 20 8 11 - - 2.8
27/06:30am 3.3 -0.7 2.9 97 0.2 WSW 13 17 7 9 - - 2.8
27/06:00am 3.3 -0.7 2.9 97 0.2 WSW 13 15 7 8 - - 2.8
27/05:30am 3.5 -0.5 2.9 96 0.3 WSW 13 17 7 9 - - 2.8
27/05:00am 3.7 -0.3 3.0 95 0.3 SW 13 17 7 9 - - 2.8
27/04:30am 3.7 -0.6 3.0 95 0.3 WSW 15 19 8 10 - - 2.8
27/04:00am 3.8 -0.2 3.1 95 0.3 WSW 13 17 7 9 - - 2.8
27/03:30am 3.8 -0.2 3.1 95 0.3 WSW 13 17 7 9 - - 2.8
27/03:00am 4.0 -0.3 3.1 94 0.4 WSW 15 20 8 11 - - 2.8
27/02:30am 4.1 -0.6 3.4 95 0.3 WSW 17 20 9 11 - - 2.8
27/02:00am 4.5 -0.5 3.6 94 0.4 WSW 19 26 10 14 - - 2.8
27/01:30am 4.7 0.2 4.0 95 0.3 WSW 17 24 9 13 - - 2.8
27/01:16am 4.8 0.0 4.4 97 0.2 WSW 19 24 10 13 - - 2.8
27/01:00am 5.0 0.2 4.4 96 0.3 WSW 19 24 10 13 - - 2.8
27/12:30am 5.3 0.8 4.1 92 0.5 WSW 17 28 9 15 - - 2.8
27/12:26am 5.3 0.8 4.1 92 0.5 WSW 17 28 9 15 - - 2.8
27/12:00am 5.3 0.8 4.0 91 0.6 WSW 17 26 9 14 - - 2.8
 
Date/Time
EST
Temp
°C
App
Temp
°C
Dew
Point
°C
Rel
Hum
%
Delta-T
°C
Wind Press
QNH
hPa
Press
MSL
hPa
Rain since
9am
mm
Dir  Spd
km/h
Gust
km/h
Spd
kts
Gust
kts
26/11:30pm 5.7 0.8 4.0 89 0.8 WSW 19 24 10 13 - - 2.8
26/11:00pm 5.6 0.6 3.8 88 0.8 WSW 19 26 10 14 - - 2.8
26/10:30pm 5.6 0.0 3.6 87 0.9 W 22 30 12 16 - - 2.8
26/10:00pm 5.5 -0.1 3.5 87 0.9 WSW 22 30 12 16 - - 2.8
26/09:30pm 5.7 0.7 3.7 87 0.9 W 19 30 10 16 - - 2.8
26/09:00pm 5.5 0.5 3.5 87 0.9 W 19 32 10 17 - - 2.8
26/08:30pm 5.3 0.1 3.3 87 0.9 W 20 30 11 16 - - 2.8
26/08:00pm 4.9 -0.4 2.8 86 0.9 W 20 32 11 17 - - 2.8
26/07:30pm 4.9 -0.4 2.9 87 0.9 WSW 20 30 11 16 - - 2.8
26/07:00pm 4.8 -0.4 2.7 86 0.9 W 19 32 10 17 - - 2.8
26/06:30pm 5.1 -1.8 2.6 84 1.1 WSW 28 46 15 25 - - 2.8
26/06:23pm 5.0 -1.9 2.7 85 1.0 WSW 28 46 15 25 - - 2.8
26/06:00pm 4.9 -1.2 2.6 85 1.0 W 24 37 13 20 - - 2.8
26/05:30pm 5.4 -1.5 2.6 82 1.2 W 28 41 15 22 - - 2.8
26/05:00pm 5.7 -1.2 2.7 81 1.3 W 28 44 15 24 - - 2.8
26/04:30pm 6.9 1.7 3.3 78 1.6 W 20 28 11 15 - - 2.8
26/04:08pm 6.9 1.0 3.7 80 1.5 WSW 24 37 13 20 - - 2.8
26/04:00pm 6.9 0.3 4.2 83 1.2 WSW 28 39 15 21 - - 2.8
26/03:40pm 6.3 -0.2 4.8 90 0.7 WSW 28 43 15 23 - - 2.8
26/03:30pm 5.7 -0.9 4.3 91 0.6 WSW 28 48 15 26 - - 2.8
26/03:24pm 5.7 -1.3 4.3 91 0.6 WSW 30 54 16 29 - - 2.8
26/03:09pm 5.8 -1.0 4.9 94 0.4 WSW 30 48 16 26 - - 2.8
26/03:00pm 5.9 -1.2 5.3 96 0.3 WSW 32 46 17 25 - - 2.8
26/02:51pm 5.8 -0.5 5.5 98 0.1 WSW 28 46 15 25 - - 2.8
26/02:33pm 4.6 -2.0 4.3 98 0.1 W 28 41 15 22 - - 2.6
26/02:30pm 4.8 -1.0 4.5 98 0.1 W 24 39 13 21 - - 2.6
26/02:18pm 4.4 -0.5 4.1 98 0.1 W 19 28 10 15 - - 2.4
26/02:12pm 4.4 -0.5 4.1 98 0.1 W 19 28 10 15 - - 2.4
26/02:00pm 4.3 -0.8 3.9 97 0.2 W 20 33 11 18 - - 2.2
26/01:46pm 4.6 -2.0 4.0 96 0.3 WSW 28 46 15 25 - - 2.0
26/01:42pm 4.5 -3.1 3.8 95 0.3 WSW 33 57 18 31 - - 2.0
26/01:32pm 5.3 -4.3 3.2 86 0.9 WSW 43 78 23 42 - - 1.6
26/01:31pm 5.5 -3.8 2.8 83 1.2 WSW 41 78 22 42 - - 1.6
26/01:30pm 6.0 -3.0 2.6 79 1.5 WSW 39 78 21 42 - - 1.4
26/01:29pm 6.9 -1.2 3.2 77 1.7 W 35 78 19 42 - - 1.4
26/01:27pm 9.5 3.5 6.9 84 1.3 W 28 56 15 30 - - 1.2
26/01:00pm 9.3 3.8 7.7 90 0.8 W 26 41 14 22 - - 1.2
26/12:57pm 9.2 3.8 8.0 92 0.6 W 26 41 14 22 - - 1.2
26/12:30pm 7.9 1.0 6.4 90 0.7 W 32 57 17 31 - - 0.8
26/12:26pm 8.7 2.6 6.7 87 1.0 W 28 57 15 31 - - 0.2
26/12:00pm 11.4 5.1 5.9 69 2.7 W 28 46 15 25 - - 0.0
26/11:30am 13.2 7.7 5.9 61 3.7 W 24 44 13 24 - - 0.0
26/11:00am 12.9 7.7 5.6 61 3.6 W 22 35 12 19 - - 0.0
26/10:30am 11.4 5.3 4.8 64 3.2 W 26 41 14 22 - - 0.0
26/10:01am 11.1 4.7 5.2 67 2.9 W 28 46 15 25 - - 0.0
26/10:00am 11.1 4.4 5.6 69 2.7 W 30 46 16 25 - - 0.0
26/09:53am 10.8 4.4 5.1 68 2.8 W 28 46 15 25 - - 0.0
26/09:30am 11.6 5.6 5.5 66 3.0 W 26 46 14 25 - - 0.0
26/09:17am 11.6 5.3 5.5 66 3.0 W 28 46 15 25 - - 0.0
26/09:00am 11.2 5.8 6.5 73 2.4 W 24 39 13 21 - - 0.0
26/08:34am 10.0 4.7 6.7 80 1.6 W 24 41 13 22 - - 0.0
26/08:30am 9.9 4.6 6.8 81 1.6 W 24 37 13 20 - - 0.0
26/08:00am 10.0 5.3 7.8 86 1.1 W 22 32 12 17 - - 0.0
26/07:30am 9.8 5.7 7.9 88 1.0 W 19 30 10 16 - - 0.0
26/07:00am 9.6 5.9 8.0 90 0.8 W 17 24 9 13 - - 0.0
26/06:30am 9.4 5.7 7.8 90 0.8 W 17 26 9 14 - - 0.0
26/06:03am 9.8 5.5 7.9 88 1.0 W 20 35 11 19 - - 0.0
26/06:00am 9.9 5.3 8.0 88 1.0 W 22 35 12 19 - - 0.0
26/05:44am 9.9 4.8 7.8 87 1.1 W 24 35 13 19 - - 0.0
26/05:30am 9.6 5.3 7.9 89 0.9 W 20 35 11 19 - - 0.0
26/05:00am 9.9 4.5 8.0 88 1.0 W 26 43 14 23 - - 0.0
26/04:58am 9.9 4.5 8.0 88 1.0 W 26 43 14 23 - - 0.0
26/04:30am 9.9 5.2 7.8 87 1.1 W 22 32 12 17 - - 0.0
26/04:00am 10.2 6.0 8.1 87 1.1 WSW 20 35 11 19 - - 0.0
26/03:45am 10.1 6.1 8.4 89 0.9 W 19 28 10 15 - - 0.0
26/03:30am 10.3 6.1 8.4 88 1.0 W 20 32 11 17 - - 0.0
26/03:00am 11.1 6.3 8.8 86 1.2 W 24 33 13 18 - - 0.0
26/02:30am 11.3 6.5 9.0 86 1.2 W 24 39 13 21 - - 0.0
26/02:00am 11.5 7.3 9.6 88 1.0 W 22 37 12 20 - - 0.0
26/01:30am 11.5 7.7 9.9 90 0.9 W 20 32 11 17 - - 0.0
26/01:00am 11.5 6.6 9.9 90 0.9 W 26 37 14 20 - - 0.0
26/12:30am 11.4 7.3 10.0 91 0.8 W 22 37 12 20 - - 0.0
26/12:00am 11.7 8.1 10.4 92 0.7 W 20 33 11 18 - - 0.0
 
Date/Time
EST
Temp
°C
App
Temp
°C
Dew
Point
°C
Rel
Hum
%
Delta-T
°C
Wind Press
QNH
hPa
Press
MSL
hPa
Rain since
9am
mm
Dir  Spd
km/h
Gust
km/h
Spd
kts
Gust
kts
25/11:30pm 11.9 8.3 10.5 91 0.8 W 20 30 11 16 - - 0.0
25/11:00pm 12.0 8.4 10.6 91 0.8 W 20 35 11 19 - - 0.0
25/10:30pm 12.1 10.1 11.5 96 0.3 WSW 13 22 7 12 - - 0.0
25/10:00pm 12.4 9.6 11.5 94 0.5 WSW 17 28 9 15 - - 0.0
25/09:30pm 12.9 8.7 11.0 88 1.1 W 24 33 13 18 - - 0.0
25/09:00pm 13.2 9.1 11.3 88 1.1 W 24 44 13 24 - - 0.0
25/08:30pm 13.1 9.3 11.3 89 1.0 W 22 35 12 19 - - 0.0
25/08:00pm 13.2 9.5 11.6 90 0.9 W 22 35 12 19 - - 0.0
25/07:30pm 13.2 9.1 11.4 89 1.0 W 24 39 13 21 - - 0.0
25/07:00pm 13.3 9.2 11.5 89 1.0 W 24 43 13 23 - - 0.0
25/06:36pm 13.5 8.6 11.4 87 1.2 W 28 46 15 25 - - 0.0
25/06:30pm 13.5 9.8 11.4 87 1.2 WNW 22 39 12 21 - - 0.0
25/06:03pm 13.6 8.8 11.5 87 1.2 WNW 28 46 15 25 - - 0.0
25/06:00pm 13.6 9.1 11.5 87 1.2 WNW 26 46 14 25 - - 0.0
25/05:30pm 13.4 11.0 11.5 88 1.1 W 15 22 8 12 - - 0.0
25/05:00pm 13.5 10.8 11.6 88 1.1 W 17 28 9 15 - - 0.0
25/04:30pm 13.6 9.5 11.5 87 1.2 W 24 35 13 19 - - 0.0
25/04:00pm 13.6 9.5 11.5 87 1.2 W 24 37 13 20 - - 0.0
25/03:30pm 13.8 9.3 11.3 85 1.4 W 26 43 14 23 - - 0.0
25/03:00pm 14.2 9.7 11.4 83 1.6 W 26 48 14 26 - - 0.0
25/02:53pm 14.3 9.5 11.5 83 1.6 W 28 48 15 26 - - 0.0
25/02:52pm 14.4 9.6 11.6 83 1.6 W 28 48 15 26 - - 0.0
25/02:30pm 14.3 10.6 11.5 83 1.6 WNW 22 43 12 23 - - 0.0
25/02:00pm 14.8 9.8 10.8 77 2.2 WNW 28 50 15 27 - - 0.0
25/01:58pm 14.9 9.9 10.9 77 2.2 WNW 28 50 15 27 - - 0.0
25/01:30pm 15.0 11.2 11.0 77 2.2 W 22 35 12 19 - - 0.0
25/01:00pm 15.7 11.0 10.5 71 2.9 WNW 26 44 14 24 - - 0.0
25/12:30pm 17.5 12.4 10.6 64 3.9 WNW 28 56 15 30 - - 0.0
25/12:12pm 17.7 12.7 10.8 64 3.9 NW 28 48 15 26 - - 0.0
25/12:00pm 17.1 12.7 10.5 65 3.7 WNW 24 44 13 24 - - 0.0
25/11:30am 17.8 13.9 10.9 64 3.9 WNW 22 39 12 21 - - 0.0
25/11:03am 18.2 13.2 11.0 63 4.1 NW 28 46 15 25 - - 0.0
25/11:00am 17.9 13.6 10.8 63 4.0 NW 24 46 13 25 - - 0.0
25/10:30am 16.9 13.0 10.7 67 3.5 WNW 22 33 12 18 - - 0.0
25/10:02am 15.5 10.3 10.1 70 3.0 NW 28 46 15 25 - - 0.0
25/10:00am 15.5 10.6 10.1 70 3.0 NW 26 46 14 25 - - 0.0
25/09:30am 15.0 11.8 10.0 72 2.8 NW 17 28 9 15 - - 0.0
25/09:00am 14.9 11.7 10.1 73 2.6 NW 17 37 9 20 - - 0.2
25/08:30am 14.7 10.9 9.7 72 2.7 NW 20 33 11 18 - - 0.2
25/08:00am 14.5 10.9 9.9 74 2.5 NNW 19 37 10 20 - - 0.2
25/07:30am 13.6 9.5 10.0 79 2.0 NW 22 39 12 21 - - 0.2
25/07:00am 14.2 10.9 9.6 74 2.5 NW 17 35 9 19 - - 0.2
25/06:30am 13.9 11.0 9.7 76 2.3 NW 15 37 8 20 - - 0.2
25/06:00am 13.7 10.8 9.6 76 2.2 NW 15 32 8 17 - - 0.2
25/05:30am 14.1 11.2 9.5 74 2.5 NW 15 26 8 14 - - 0.2
25/05:00am 14.0 11.1 9.6 75 2.4 NW 15 28 8 15 - - 0.2
25/04:30am 13.5 10.9 9.2 75 2.3 WNW 13 28 7 15 - - 0.2
25/04:00am 14.0 11.0 9.4 74 2.5 NW 15 26 8 14 - - 0.2
25/03:30am 14.0 11.4 9.4 74 2.5 NW 13 22 7 12 - - 0.2
25/03:00am 13.4 10.9 9.6 78 2.1 NW 13 24 7 13 - - 0.2
25/02:30am 12.6 10.5 9.8 83 1.5 WNW 11 20 6 11 - - 0.2
25/02:00am 12.5 10.8 9.7 83 1.5 WNW 9 17 5 9 - - 0.2
25/01:30am 12.9 11.2 9.9 82 1.6 WNW 9 19 5 10 - - 0.2
25/01:00am 12.5 10.8 9.7 83 1.5 W 9 15 5 8 - - 0.2
25/12:30am 13.2 11.8 9.6 79 1.9 WNW 7 15 4 8 - - 0.2
25/12:00am 13.7 11.9 9.4 75 2.3 NNW 9 17 5 9 - - 0.2
 
Date/Time
EST
Temp
°C
App
Temp
°C
Dew
Point
°C
Rel
Hum
%
Delta-T
°C
Wind Press
QNH
hPa
Press
MSL
hPa
Rain since
9am
mm
Dir  Spd
km/h
Gust
km/h
Spd
kts
Gust
kts
24/11:30pm 13.4 11.6 9.6 78 2.1 NW 9 13 5 7 - - 0.2
24/11:00pm 13.4 12.2 10.4 82 1.7 NE 7 11 4 6 - - 0.2
24/10:30pm 13.4 12.3 10.6 83 1.5 N 7 9 4 5 - - 0.2
24/10:00pm 13.3 12.4 10.7 84 1.4 NNE 6 9 3 5 - - 0.2
24/09:30pm 13.4 12.3 10.6 83 1.5 NNE 7 11 4 6 - - 0.2
24/09:00pm 13.5 11.7 10.7 83 1.6 NE 11 15 6 8 - - 0.2
24/08:30pm 13.5 11.7 11.0 85 1.4 NE 11 17 6 9 - - 0.2
24/08:00pm 13.3 12.1 11.5 89 1.0 NE 9 13 5 7 - - 0.2
24/07:30pm 13.4 12.3 11.8 90 0.9 ENE 9 17 5 9 - - 0.2
24/07:00pm 13.4 12.3 11.8 90 0.9 ENE 9 13 5 7 - - 0.2
24/06:30pm 13.6 12.5 11.8 89 1.0 ENE 9 17 5 9 - - 0.2
24/06:00pm 13.9 12.8 11.9 88 1.1 ENE 9 13 5 7 - - 0.2
24/05:30pm 14.1 13.0 12.0 87 1.2 ENE 9 11 5 6 - - 0.2
24/05:00pm 14.5 13.8 12.0 85 1.4 ENE 7 13 4 7 - - 0.2
24/04:30pm 14.8 13.7 12.1 84 1.5 ENE 9 13 5 7 - - 0.2
24/04:00pm 15.1 14.0 11.9 81 1.8 ENE 9 13 5 7 - - 0.2
24/03:30pm 15.9 15.4 12.8 82 1.8 ENE 7 13 4 7 - - 0.2

Other Formats:

Comma delimited format used in spreadsheet applications
http://www.bom.gov.au/fwo/IDN60801/IDN60801.94743.axf

JavaScript Object Notation format (JSON) in row-major order
http://www.bom.gov.au/fwo/IDN60801/IDN60801.94743.json